Time;durP1;ratioP1;P1;durP2;ratioP2;P2;SDS_P1;SDS_P2;PMS_P1;PMS_P2;Temp;Humidity;BMP_temperature;BMP_pressure;BME280_temperature;BME280_humidity;BME280_pressure;Samples;Min_cycle;Max_cycle;Signal;HPM_P1;HPM_P2
2023/11/13 00:02:03;;;;;;;;;;;;;;;11.53;56.43;100184.94;4967525;27;98332;-69
2023/11/13 00:04:29;;;;;;;;;;;;;;;11.53;56.58;100196.53;4967077;27;98419;-69
2023/11/13 00:06:55;;;;;;;;;;;;;;;11.53;56.47;100198.44;4987438;27;98218;-69
2023/11/13 00:09:21;;;;;;;;;;;;;;;11.53;56.57;100210.03;4983527;27;98032;-64
2023/11/13 00:11:47;;;;;;;;;;;;;;;11.52;56.43;100205.72;4986653;27;99469;-64
2023/11/13 00:14:14;;;;;;;;;;;;;;;11.52;56.44;100215.72;4964078;27;98960;-64
2023/11/13 00:16:40;;;;;;;;;;;;;;;11.52;56.56;100213.03;4970522;27;98284;-69
2023/11/13 00:19:06;;;;;;;;;;;;;;;11.50;56.49;100213.28;4980722;27;98836;-69
2023/11/13 00:21:33;;;;;;;;;;;;;;;11.51;56.53;100206.81;4967522;27;99529;-64
2023/11/13 00:23:59;;;;;;;;;;;;;;;11.51;56.53;100211.38;4967277;27;99282;-64
2023/11/13 00:26:25;;;;;;;;;;;;;;;11.51;56.53;100224.88;4969679;27;97988;-69
2023/11/13 00:28:51;;;;;;;;;;;;;;;11.51;56.57;100216.78;4961047;27;98061;-69
2023/11/13 00:31:18;;;;;;;;;;;;;;;11.50;56.43;100215.97;4972901;27;108742;-69
2023/11/13 00:33:46;;;;;;;;;;;;;;;11.50;56.41;100223.28;4966713;27;99531;-64
2023/11/13 00:36:12;;;;;;;;;;;;;;;11.49;56.38;100219.78;4963427;27;101208;-64
2023/11/13 00:38:38;;;;;;;;;;;;;;;11.50;56.54;100215.19;4966098;27;111417;-69
2023/11/13 00:41:08;;;;;;;;;;;;;;;11.49;56.50;100217.06;4982512;27;98164;-69
2023/11/13 00:43:34;;;;;;;;;;;;;;;11.48;56.45;100210.06;4969817;27;97840;-69
2023/11/13 00:46:00;;;;;;;;;;;;;;;11.48;56.46;100217.38;4961734;27;98104;-64
2023/11/13 00:48:27;;;;;;;;;;;;;;;11.48;56.55;100220.88;4966835;27;107717;-69
2023/11/13 00:50:53;;;;;;;;;;;;;;;11.49;56.46;100224.38;4997505;27;98643;-69
2023/11/13 00:53:19;;;;;;;;;;;;;;;11.47;56.37;100213.84;4963982;27;98506;-69
2023/11/13 00:55:45;;;;;;;;;;;;;;;11.49;56.54;100208.19;4983060;27;115203;-64
2023/11/13 00:58:11;;;;;;;;;;;;;;;11.48;56.25;100206.56;4962321;27;118987;-64
2023/11/13 01:00:37;;;;;;;;;;;;;;;11.47;56.50;100205.75;4962304;27;101951;-64
2023/11/13 01:03:04;;;;;;;;;;;;;;;11.47;56.45;100202.25;4981686;27;97983;-64
2023/11/13 01:05:30;;;;;;;;;;;;;;;11.47;56.36;100208.44;4970874;27;98394;-69
2023/11/13 01:07:56;;;;;;;;;;;;;;;11.45;56.34;100202.53;4966940;27;99544;-64
2023/11/13 01:10:22;;;;;;;;;;;;;;;11.46;56.50;100198.75;4965330;27;99528;-69
2023/11/13 01:12:48;;;;;;;;;;;;;;;11.45;56.59;100199.03;4966530;27;98950;-64
2023/11/13 01:15:15;;;;;;;;;;;;;;;11.46;56.46;100189.84;4980549;27;99597;-69
2023/11/13 01:17:41;;;;;;;;;;;;;;;11.45;56.50;100183.63;4962305;27;100031;-64
2023/11/13 01:20:08;;;;;;;;;;;;;;;11.45;56.46;100180.94;4977666;27;100670;-69
2023/11/13 01:22:34;;;;;;;;;;;;;;;11.44;56.47;100176.63;4967794;27;98074;-69
2023/11/13 01:25:00;;;;;;;;;;;;;;;11.44;56.39;100167.72;4963465;27;98355;-64
2023/11/13 01:27:26;;;;;;;;;;;;;;;11.43;56.42;100166.91;4968713;27;100162;-69
2023/11/13 01:29:53;;;;;;;;;;;;;;;11.43;56.41;100156.09;4965176;27;98623;-64
2023/11/13 01:32:19;;;;;;;;;;;;;;;11.43;56.36;100164.19;4967122;27;99757;-69
2023/11/13 01:34:45;;;;;;;;;;;;;;;11.42;56.19;100170.69;4976092;27;117508;-69
2023/11/13 01:37:13;;;;;;;;;;;;;;;11.41;56.41;100161.00;4983468;27;117417;-64
2023/11/13 01:39:39;;;;;;;;;;;;;;;11.41;56.34;100160.19;4971102;27;98352;-68
2023/11/13 01:42:05;;;;;;;;;;;;;;;11.40;56.46;100172.88;4980531;27;123055;-68
2023/11/13 01:44:31;;;;;;;;;;;;;;;11.40;56.40;100172.88;4963712;27;98078;-68
2023/11/13 01:46:57;;;;;;;;;;;;;;;11.38;56.39;100161.53;4965539;27;121296;-63
2023/11/13 01:49:23;;;;;;;;;;;;;;;11.39;56.44;100165.84;4959366;27;98563;-69
2023/11/13 01:51:49;;;;;;;;;;;;;;;11.38;56.46;100164.25;4980798;27;97902;-64
2023/11/13 01:54:16;;;;;;;;;;;;;;;11.38;56.55;100161.53;4956601;27;98379;-68
2023/11/13 01:56:43;;;;;;;;;;;;;;;11.39;56.47;100159.66;4979148;27;98316;-69
2023/11/13 01:59:09;;;;;;;;;;;;;;;11.37;56.45;100154.53;4966598;27;97933;-69
2023/11/13 02:01:36;;;;;;;;;;;;;;;11.37;56.40;100168.03;4972377;27;99661;-64
2023/11/13 02:04:02;;;;;;;;;;;;;;;11.38;56.34;100172.34;4969158;27;97980;-69
2023/11/13 02:06:30;;;;;;;;;;;;;;;11.37;56.42;100170.72;4972650;27;98457;-68
2023/11/13 02:08:56;;;;;;;;;;;;;;;11.38;56.57;100163.44;4968035;27;98224;-69
2023/11/13 02:11:22;;;;;;;;;;;;;;;11.37;56.49;100154.53;4968087;27;127572;-64
2023/11/13 02:13:48;;;;;;;;;;;;;;;11.38;56.30;100152.66;4974861;27;98030;-64
2023/11/13 02:16:14;;;;;;;;;;;;;;;11.37;56.35;100143.75;4988081;27;99444;-69
2023/11/13 02:18:40;;;;;;;;;;;;;;;11.35;56.49;100139.72;4981272;27;98418;-64
2023/11/13 02:21:06;;;;;;;;;;;;;;;11.36;56.46;100139.44;4978106;27;98161;-64
2023/11/13 02:23:32;;;;;;;;;;;;;;;11.36;56.56;100146.72;4969768;27;116855;-69
2023/11/13 02:25:58;;;;;;;;;;;;;;;11.36;56.36;100154.81;4963850;27;101715;-64
2023/11/13 02:28:26;;;;;;;;;;;;;;;11.34;56.53;100163.19;4983073;27;98489;-68
2023/11/13 02:30:52;;;;;;;;;;;;;;;11.34;56.24;100165.09;4968059;27;100086;-64
2023/11/13 02:33:18;;;;;;;;;;;;;;;11.32;56.42;100162.69;4997681;27;99034;-64
2023/11/13 02:35:46;;;;;;;;;;;;;;;11.34;56.21;100162.38;4969277;27;98452;-64
2023/11/13 02:38:12;;;;;;;;;;;;;;;11.35;56.41;100166.69;4970311;27;98488;-69
2023/11/13 02:40:38;;;;;;;;;;;;;;;11.34;56.54;100175.88;4981798;27;123871;-64
2023/11/13 02:43:05;;;;;;;;;;;;;;;11.34;56.45;100187.47;4979190;27;118445;-68
2023/11/13 02:45:30;;;;;;;;;;;;;;;11.33;56.45;100175.09;4971844;27;98138;-64
2023/11/13 02:47:59;;;;;;;;;;;;;;;11.31;56.39;100175.34;4982169;27;99855;-64
2023/11/13 02:50:25;;;;;;;;;;;;;;;11.31;56.46;100182.63;4997838;27;99184;-64
2023/11/13 02:52:51;;;;;;;;;;;;;;;11.29;56.40;100180.22;4963981;27;98979;-64
2023/11/13 02:55:17;;;;;;;;;;;;;;;11.28;56.53;100173.22;4971207;27;121198;-68
2023/11/13 02:57:43;;;;;;;;;;;;;;;11.27;56.46;100166.19;4969962;27;103163;-68
2023/11/13 03:00:11;;;;;;;;;;;;;;;11.26;56.52;100171.88;4965657;27;100670;-63
2023/11/13 03:02:37;;;;;;;;;;;;;;;11.24;56.47;100171.38;4965494;27;98828;-68
2023/11/13 03:05:03;;;;;;;;;;;;;;;11.22;56.34;100177.03;4962357;27;97812;-64
2023/11/13 03:07:29;;;;;;;;;;;;;;;11.21;56.60;100171.91;4970667;27;98251;-69
2023/11/13 03:09:55;;;;;;;;;;;;;;;11.19;56.45;100171.38;4967234;27;127909;-69
2023/11/13 03:12:22;;;;;;;;;;;;;;;11.18;56.42;100161.66;4972667;27;97985;-64
2023/11/13 03:14:48;;;;;;;;;;;;;;;11.16;56.58;100164.66;4970913;27;99403;-64
2023/11/13 03:17:14;;;;;;;;;;;;;;;11.14;56.34;100161.41;4954145;27;110840;-64
2023/11/13 03:19:40;;;;;;;;;;;;;;;11.13;56.65;100164.41;4963916;27;99408;-68
2023/11/13 03:22:07;;;;;;;;;;;;;;;11.11;56.43;100161.16;4970309;27;98438;-69
2023/11/13 03:24:34;;;;;;;;;;;;;;;11.08;56.73;100159.81;4996944;27;117009;-64
2023/11/13 03:27:00;;;;;;;;;;;;;;;11.06;56.37;100157.41;4968765;27;124400;-64
2023/11/13 03:29:26;;;;;;;;;;;;;;;11.04;56.39;100162.28;4982087;27;98231;-64
2023/11/13 03:31:52;;;;;;;;;;;;;;;11.03;56.46;100165.25;4980591;27;98153;-69
2023/11/13 03:34:19;;;;;;;;;;;;;;;11.00;56.34;100169.31;4987966;27;98522;-69
2023/11/13 03:36:45;;;;;;;;;;;;;;;10.99;56.50;100167.69;4966327;27;98046;-64
2023/11/13 03:39:15;;;;;;;;;;;;;;;10.97;56.17;100158.28;4961518;27;98069;-64
2023/11/13 03:41:41;;;;;;;;;;;;;;;10.94;56.38;100159.63;4983518;27;98096;-64
2023/11/13 03:44:07;;;;;;;;;;;;;;;10.94;56.36;100175.00;4968358;27;98518;-69
2023/11/13 03:46:33;;;;;;;;;;;;;;;10.92;56.26;100166.38;4966554;27;98352;-64
2023/11/13 03:49:00;;;;;;;;;;;;;;;10.89;56.45;100170.44;4962128;27;99185;-69
2023/11/13 03:51:26;;;;;;;;;;;;;;;10.88;56.63;100179.59;4981748;27;98258;-69
2023/11/13 03:53:52;;;;;;;;;;;;;;;10.86;56.63;100186.38;4978607;27;98251;-69
2023/11/13 03:56:23;;;;;;;;;;;;;;;10.84;56.48;100181.25;4966138;27;100758;-69
2023/11/13 03:58:49;;;;;;;;;;;;;;;10.81;56.56;100179.13;4982554;27;113689;-69
2023/11/13 04:01:16;;;;;;;;;;;;;;;10.79;56.52;100184.75;4963785;27;98766;-64
2023/11/13 04:03:42;;;;;;;;;;;;;;;10.79;56.67;100173.19;4968932;27;98546;-64
2023/11/13 04:06:08;;;;;;;;;;;;;;;10.76;56.31;100166.44;4966882;27;98082;-64
2023/11/13 04:08:34;;;;;;;;;;;;;;;10.76;56.66;100168.31;4985034;27;99168;-69
2023/11/13 04:11:03;;;;;;;;;;;;;;;10.73;56.49;100175.09;4980662;27;98174;-69
2023/11/13 04:13:29;;;;;;;;;;;;;;;10.73;56.57;100161.63;4971195;27;99783;-69
2023/11/13 04:15:57;;;;;;;;;;;;;;;10.71;56.31;100158.38;4965922;27;98642;-64
2023/11/13 04:18:23;;;;;;;;;;;;;;;10.70;56.37;100156.78;4981470;27;98735;-69
2023/11/13 04:20:49;;;;;;;;;;;;;;;10.68;56.38;100158.13;4963662;27;99481;-64
2023/11/13 04:23:16;;;;;;;;;;;;;;;10.67;56.63;100156.50;4983996;27;118247;-64
2023/11/13 04:25:46;;;;;;;;;;;;;;;10.65;56.49;100162.19;4963035;27;98694;-69
2023/11/13 04:28:15;;;;;;;;;;;;;;;10.64;56.71;100159.75;4964891;27;99273;-64
2023/11/13 04:30:41;;;;;;;;;;;;;;;10.63;56.21;100158.94;4970682;27;98172;-68
2023/11/13 04:33:07;;;;;;;;;;;;;;;10.62;56.44;100172.72;4966259;27;99527;-69
2023/11/13 04:35:33;;;;;;;;;;;;;;;10.59;56.52;100162.47;4977268;27;100654;-64
2023/11/13 04:37:59;;;;;;;;;;;;;;;10.59;56.61;100165.16;4981292;27;98263;-69
2023/11/13 04:40:26;;;;;;;;;;;;;;;10.57;56.37;100162.72;4968139;27;99856;-69
2023/11/13 04:42:52;;;;;;;;;;;;;;;10.55;56.33;100168.41;4966867;27;102041;-69
2023/11/13 04:45:18;;;;;;;;;;;;;;;10.54;56.04;100171.38;4961778;27;114723;-69
2023/11/13 04:47:44;;;;;;;;;;;;;;;10.53;56.30;100169.75;4969348;27;117660;-64
2023/11/13 04:50:10;;;;;;;;;;;;;;;10.53;56.53;100172.44;4960977;27;100193;-64
2023/11/13 04:52:37;;;;;;;;;;;;;;;10.51;56.58;100180.00;4980131;27;98697;-64
2023/11/13 04:55:03;;;;;;;;;;;;;;;10.49;56.22;100180.28;4964554;27;98102;-69
2023/11/13 04:57:29;;;;;;;;;;;;;;;10.48;56.06;100181.34;4977952;27;99263;-64
2023/11/13 04:59:55;;;;;;;;;;;;;;;10.47;56.48;100173.56;4963626;27;99163;-64
2023/11/13 05:02:22;;;;;;;;;;;;;;;10.46;56.26;100178.13;4966339;27;98297;-64
2023/11/13 05:04:48;;;;;;;;;;;;;;;10.46;56.54;100180.03;4971781;27;98917;-69
2023/11/13 05:07:14;;;;;;;;;;;;;;;10.45;56.45;100190.00;4979578;27;98036;-64
2023/11/13 05:09:41;;;;;;;;;;;;;;;10.44;56.55;100191.06;4986619;27;99165;-64
2023/11/13 05:12:08;;;;;;;;;;;;;;;10.44;56.17;100201.03;4998952;27;99960;-64
2023/11/13 05:14:34;;;;;;;;;;;;;;;10.44;56.29;100206.44;4984498;27;98910;-64
2023/11/13 05:17:00;;;;;;;;;;;;;;;10.43;56.46;100211.00;4965507;27;98343;-69
2023/11/13 05:19:26;;;;;;;;;;;;;;;10.43;56.37;100205.63;4974429;27;97941;-64
2023/11/13 05:21:52;;;;;;;;;;;;;;;10.42;56.58;100203.22;4982120;27;108616;-64
2023/11/13 05:24:19;;;;;;;;;;;;;;;10.43;56.08;100207.50;4960906;27;99808;-64
2023/11/13 05:26:45;;;;;;;;;;;;;;;10.43;56.74;100210.22;4969294;27;97819;-69
2023/11/13 05:29:11;;;;;;;;;;;;;;;10.42;56.55;100205.91;4983553;27;115832;-69
2023/11/13 05:31:37;;;;;;;;;;;;;;;10.42;56.02;100201.31;4968138;27;100028;-64
2023/11/13 05:34:03;;;;;;;;;;;;;;;10.42;56.33;100204.03;4967796;27;98563;-69
2023/11/13 05:36:29;;;;;;;;;;;;;;;10.43;56.54;100199.44;4969750;27;98231;-69
2023/11/13 05:38:55;;;;;;;;;;;;;;;10.42;56.56;100203.22;4964378;27;97837;-69
2023/11/13 05:41:21;;;;;;;;;;;;;;;10.43;56.22;100194.03;4966787;27;101282;-69
2023/11/13 05:43:48;;;;;;;;;;;;;;;10.43;56.10;100184.06;4978113;27;128543;-64
2023/11/13 05:46:15;;;;;;;;;;;;;;;10.43;56.25;100188.66;4970980;27;99391;-69
2023/11/13 05:48:41;;;;;;;;;;;;;;;10.43;56.23;100180.56;4966404;27;98776;-69
2023/11/13 05:51:07;;;;;;;;;;;;;;;10.43;56.30;100169.78;4967286;27;98484;-64
2023/11/13 05:53:34;;;;;;;;;;;;;;;10.43;56.50;100167.09;4964296;27;100156;-64
2023/11/13 05:55:59;;;;;;;;;;;;;;;10.43;56.46;100167.91;4967988;27;98021;-69
2023/11/13 05:58:25;;;;;;;;;;;;;;;10.43;56.18;100172.47;4966543;27;116968;-64
2023/11/13 06:00:51;;;;;;;;;;;;;;;10.43;56.45;100181.38;4971911;27;105188;-69
2023/11/13 06:03:17;;;;;;;;;;;;;;;10.43;56.18;100172.47;4987229;27;98121;-69
2023/11/13 06:05:44;;;;;;;;;;;;;;;10.43;56.21;100167.91;4973794;27;98803;-69
2023/11/13 06:08:10;;;;;;;;;;;;;;;10.43;56.22;100169.78;4985725;27;98307;-69
2023/11/13 06:10:35;;;;;;;;;;;;;;;10.42;55.88;100174.38;4971609;27;116738;-64
2023/11/13 06:13:02;;;;;;;;;;;;;;;10.42;56.61;100190.53;4968113;27;126618;-64
2023/11/13 06:15:28;;;;;;;;;;;;;;;10.42;55.84;100195.94;4968852;27;98241;-64
2023/11/13 06:17:54;;;;;;;;;;;;;;;10.42;55.98;100198.63;4966207;27;99622;-68
2023/11/13 06:20:20;;;;;;;;;;;;;;;10.41;56.47;100196.19;4982061;27;99822;-64
2023/11/13 06:22:47;;;;;;;;;;;;;;;10.42;56.52;100192.44;4977890;27;103302;-64
2023/11/13 06:25:13;;;;;;;;;;;;;;;10.41;56.21;100205.06;4987708;27;100126;-69
2023/11/13 06:27:40;;;;;;;;;;;;;;;10.41;56.20;100205.06;4991217;27;98066;-65
2023/11/13 06:30:09;;;;;;;;;;;;;;;10.42;56.44;100203.22;4975009;27;98826;-64
2023/11/13 06:32:36;;;;;;;;;;;;;;;10.43;56.15;100202.13;4968547;27;99878;-63
2023/11/13 06:35:02;;;;;;;;;;;;;;;10.44;56.07;100209.13;4978896;27;98871;-69
2023/11/13 06:37:28;;;;;;;;;;;;;;;10.48;56.18;100212.88;4972104;27;99821;-69
2023/11/13 06:39:55;;;;;;;;;;;;;;;10.50;56.19;100211.53;4980219;27;99363;-63
2023/11/13 06:42:20;;;;;;;;;;;;;;;10.54;56.22;100207.22;4962624;27;126724;-64
2023/11/13 06:44:47;;;;;;;;;;;;;;;10.57;55.96;100206.69;4979212;27;99362;-64
2023/11/13 06:47:13;;;;;;;;;;;;;;;10.61;56.19;100215.03;4973068;27;97996;-69
2023/11/13 06:49:39;;;;;;;;;;;;;;;10.63;56.12;100212.84;4966210;27;98378;-69
2023/11/13 06:52:11;;;;;;;;;;;;;;;10.68;56.32;100201.25;4991598;27;98288;-63
2023/11/13 06:54:38;;;;;;;;;;;;;;;10.73;55.74;100202.06;4972190;27;99509;-63
2023/11/13 06:57:04;;;;;;;;;;;;;;;10.76;55.72;100204.19;4971118;27;98988;-69
2023/11/13 06:59:30;;;;;;;;;;;;;;;10.79;55.78;100206.34;4986055;27;98439;-64
2023/11/13 07:01:57;;;;;;;;;;;;;;;10.82;55.77;100205.00;4980096;27;98458;-69
2023/11/13 07:04:24;;;;;;;;;;;;;;;10.87;56.08;100212.25;4973247;27;99193;-64
2023/11/13 07:06:50;;;;;;;;;;;;;;;10.88;55.75;100209.25;4972658;27;98479;-69
2023/11/13 07:09:16;;;;;;;;;;;;;;;10.91;55.68;100210.63;4997142;27;110664;-69
2023/11/13 07:11:43;;;;;;;;;;;;;;;10.92;55.84;100209.53;4967152;27;99514;-63
2023/11/13 07:14:09;;;;;;;;;;;;;;;10.92;55.84;100199.53;4971623;27;98256;-69
2023/11/13 07:16:35;;;;;;;;;;;;;;;10.96;56.06;100202.50;4971194;27;98099;-63
2023/11/13 07:19:04;;;;;;;;;;;;;;;11.01;55.57;100195.22;4979058;27;98186;-64
2023/11/13 07:21:35;;;;;;;;;;;;;;;11.07;55.71;100194.09;4998567;27;98500;-64
2023/11/13 07:24:04;;;;;;;;;;;;;;;11.14;55.65;100188.41;4969722;27;98612;-64
2023/11/13 07:26:30;;;;;;;;;;;;;;;11.21;55.60;100188.09;4986428;27;98028;-63
2023/11/13 07:28:56;;;;;;;;;;;;;;;11.24;55.74;100182.16;4976193;27;99730;-64
2023/11/13 07:31:22;;;;;;;;;;;;;;;11.30;55.68;100184.53;4981822;27;100671;-69
2023/11/13 07:33:49;;;;;;;;;;;;;;;11.40;55.47;100183.69;4965902;27;109458;-64
2023/11/13 07:36:15;;;;;;;;;;;;;;;11.51;55.25;100181.69;4985300;27;98252;-68
2023/11/13 07:38:43;;;;;;;;;;;;;;;11.64;55.22;100178.38;4963295;27;123064;-63
2023/11/13 07:41:11;;;;;;;;;;;;;;;11.78;55.14;100175.84;4970586;27;99136;-64
2023/11/13 07:43:41;;;;;;;;;;;;;;;11.82;55.31;100182.28;4971203;27;98116;-64
2023/11/13 07:46:11;;;;;;;;;;;;;;;11.83;55.25;100175.84;4985789;27;98402;-69
2023/11/13 07:48:38;;;;;;;;;;;;;;;11.86;55.38;100174.47;4966585;27;98964;-69
2023/11/13 07:51:04;;;;;;;;;;;;;;;11.91;55.35;100187.94;4968154;27;105725;-64
2023/11/13 07:53:30;;;;;;;;;;;;;;;11.95;55.53;100178.19;4969462;27;99365;-69
2023/11/13 07:55:56;;;;;;;;;;;;;;;11.98;55.38;100185.69;4971262;27;98207;-64
2023/11/13 07:58:23;;;;;;;;;;;;;;;12.09;55.18;100181.03;4997618;27;98862;-69
2023/11/13 08:00:53;;;;;;;;;;;;;;;12.22;55.17;100188.47;4963866;27;100441;-64
2023/11/13 08:03:23;;;;;;;;;;;;;;;12.44;55.13;100183.38;4971287;27;98038;-69
2023/11/13 08:05:49;;;;;;;;;;;;;;;12.64;54.70;100182.34;4965812;27;99606;-69
2023/11/13 08:08:16;;;;;;;;;;;;;;;12.98;54.45;100190.34;4956794;27;98094;-69
2023/11/13 08:10:46;;;;;;;;;;;;;;;13.00;54.70;100184.63;4994138;27;99764;-64
2023/11/13 08:13:13;;;;;;;;;;;;;;;13.07;54.85;100184.28;4981170;27;98043;-69
2023/11/13 08:15:39;;;;;;;;;;;;;;;13.24;54.75;100181.91;4986397;27;98051;-69
2023/11/13 08:18:05;;;;;;;;;;;;;;;13.47;54.45;100172.13;4979507;27;98436;-65
2023/11/13 08:20:31;;;;;;;;;;;;;;;13.49;54.71;100169.94;4961823;27;114858;-64
2023/11/13 08:22:57;;;;;;;;;;;;;;;13.62;54.19;100166.47;4968230;27;127577;-64
2023/11/13 08:25:24;;;;;;;;;;;;;;;13.89;53.96;100173.09;4975915;27;106611;-69
2023/11/13 08:27:52;;;;;;;;;;;;;;;14.10;54.29;100173.56;4981523;27;98422;-65
2023/11/13 08:30:22;;;;;;;;;;;;;;;14.10;54.36;100162.72;4967894;27;97980;-69
2023/11/13 08:32:51;;;;;;;;;;;;;;;14.04;54.42;100166.63;4981349;27;97887;-69
2023/11/13 08:35:18;;;;;;;;;;;;;;;13.95;54.61;100161.88;4969242;27;99102;-64
2023/11/13 08:37:47;;;;;;;;;;;;;;;13.93;54.82;100158.66;4975264;27;99383;-69
2023/11/13 08:40:23;;;;;;;;;;;;;;;14.02;54.76;100152.56;4982782;27;98027;-64
2023/11/13 08:42:49;;;;;;;;;;;;;;;14.27;54.10;100152.13;4982352;27;98520;-64
2023/11/13 08:45:15;;;;;;;;;;;;;;;15.01;53.41;100140.34;4994543;27;98209;-64
2023/11/13 08:47:47;;;;;;;;;;;;;;;15.31;53.42;100139.69;4968335;27;99478;-64
2023/11/13 08:50:13;;;;;;;;;;;;;;;15.42;53.63;100130.19;4982309;27;99975;-64
2023/11/13 08:52:43;;;;;;;;;;;;;;;15.34;53.96;100139.06;4982665;27;98339;-64
2023/11/13 08:55:10;;;;;;;;;;;;;;;15.36;54.16;100131.41;4971743;27;97934;-69
2023/11/13 08:57:38;;;;;;;;;;;;;;;15.69;53.63;100132.03;4981547;27;98702;-64
2023/11/13 09:00:05;;;;;;;;;;;;;;;16.11;53.24;100118.19;4977896;27;98936;-69
2023/11/13 09:02:31;;;;;;;;;;;;;;;16.48;53.19;100127.00;5000773;27;98814;-69
2023/11/13 09:04:57;;;;;;;;;;;;;;;16.95;52.79;100130.84;4977624;27;98244;-64
2023/11/13 09:07:23;;;;;;;;;;;;;;;17.65;52.37;100128.94;4978233;27;105187;-64
2023/11/13 09:09:54;;;;;;;;;;;;;;;17.83;52.64;100135.19;4983565;27;99430;-64
2023/11/13 09:12:21;;;;;;;;;;;;;;;18.13;52.62;100131.44;4970019;27;99325;-64
2023/11/13 09:14:47;;;;;;;;;;;;;;;18.52;52.45;100134.97;4984282;27;98996;-69
2023/11/13 09:17:13;;;;;;;;;;;;;;;18.60;52.65;100131.41;4978084;27;120134;-66
2023/11/13 09:19:42;;;;;;;;;;;;;;;19.05;52.05;100128.09;4981563;27;98000;-69
2023/11/13 09:22:09;;;;;;;;;;;;;;;19.83;51.23;100130.19;4969084;27;125938;-64
2023/11/13 09:24:38;;;;;;;;;;;;;;;20.59;50.56;100133.53;4966089;27;98078;-69
2023/11/13 09:27:09;;;;;;;;;;;;;;;20.92;50.47;100136.13;4992078;27;98526;-64
2023/11/13 09:29:38;;;;;;;;;;;;;;;20.94;50.81;100135.78;4973966;27;98376;-65
2023/11/13 09:32:07;;;;;;;;;;;;;;;20.29;51.84;100128.25;4969485;27;98146;-69
2023/11/13 09:34:33;;;;;;;;;;;;;;;19.90;52.52;100121.44;4971626;27;98070;-69
2023/11/13 09:36:59;;;;;;;;;;;;;;;19.56;52.89;100120.63;4975466;27;101254;-64
2023/11/13 09:39:32;;;;;;;;;;;;;;;19.33;53.17;100114.69;4997315;27;98139;-70
2023/11/13 09:42:05;;;;;;;;;;;;;;;19.27;53.26;100118.00;4986915;27;98169;-64
2023/11/13 09:44:31;;;;;;;;;;;;;;;19.12;53.27;100105.72;4982775;27;98113;-70
2023/11/13 09:47:00;;;;;;;;;;;;;;;18.96;53.62;100102.78;4972714;27;99851;-65
2023/11/13 09:49:30;;;;;;;;;;;;;;;18.87;53.55;100105.59;4967718;27;97929;-69
2023/11/13 09:52:00;;;;;;;;;;;;;;;18.70;53.66;100100.22;4988057;27;98299;-64
2023/11/13 09:54:26;;;;;;;;;;;;;;;18.56;54.05;100100.44;5003892;27;98237;-64
2023/11/13 09:56:54;;;;;;;;;;;;;;;18.46;53.99;100103.53;4969343;27;101316;-69
2023/11/13 09:59:20;;;;;;;;;;;;;;;18.33;54.02;100105.34;4971179;27;98216;-69
2023/11/13 10:01:46;;;;;;;;;;;;;;;18.24;54.24;100104.59;4972586;27;100147;-65
2023/11/13 10:04:13;;;;;;;;;;;;;;;18.21;54.07;100091.63;4972000;27;98338;-69
2023/11/13 10:06:39;;;;;;;;;;;;;;;18.14;54.37;100088.59;4972384;27;98807;-69
2023/11/13 10:09:05;;;;;;;;;;;;;;;18.06;54.29;100084.75;4969081;27;98779;-69
2023/11/13 10:11:32;;;;;;;;;;;;;;;18.11;54.01;100076.41;4970488;27;98086;-64
2023/11/13 10:14:12;;;;;;;;;;;;;;;18.19;54.02;100080.22;4985941;27;97949;-64
2023/11/13 10:16:38;;;;;;;;;;;;;;;18.18;53.91;100078.63;4992284;27;98540;-69
2023/11/13 10:19:15;;;;;;;;;;;;;;;18.16;54.08;100064.53;4994996;27;126437;-69
2023/11/13 10:21:43;;;;;;;;;;;;;;;18.14;54.17;100061.31;4970428;27;98205;-64
2023/11/13 10:24:15;;;;;;;;;;;;;;;18.03;54.33;100058.13;4973031;27;98649;-69
2023/11/13 10:26:45;;;;;;;;;;;;;;;17.88;54.33;100059.50;4988856;27;99570;-64
2023/11/13 10:29:22;;;;;;;;;;;;;;;17.82;54.30;100060.78;4968472;27;100278;-64
2023/11/13 10:31:52;;;;;;;;;;;;;;;17.71;54.38;100055.97;5003009;27;98224;-64
2023/11/13 10:34:20;;;;;;;;;;;;;;;17.73;54.52;100062.72;4969241;27;99171;-64
2023/11/13 10:37:04;;;;;;;;;;;;;;;17.75;54.47;100059.69;4965544;27;98271;-64
2023/11/13 10:39:40;;;;;;;;;;;;;;;17.80;54.40;100041.25;4966310;27;99466;-69
2023/11/13 10:42:22;;;;;;;;;;;;;;;17.87;54.26;100035.28;4974290;27;98896;-69
2023/11/13 10:44:49;;;;;;;;;;;;;;;17.91;54.27;100023.38;4984757;27;98438;-64
2023/11/13 10:47:23;;;;;;;;;;;;;;;17.88;54.34;100004.16;4981945;27;99065;-69
2023/11/13 10:49:53;;;;;;;;;;;;;;;17.95;54.14;99999.00;4984672;27;99877;-64
2023/11/13 10:52:21;;;;;;;;;;;;;;;17.86;54.24;99993.59;4990868;27;98253;-69
2023/11/13 10:54:50;;;;;;;;;;;;;;;17.87;54.40;99987.00;4986475;27;98089;-64
2023/11/13 10:57:18;;;;;;;;;;;;;;;17.91;54.05;99992.59;4983876;27;99167;-69
2023/11/13 10:59:47;;;;;;;;;;;;;;;17.95;54.20;99996.25;4978975;27;100227;-69
2023/11/13 11:02:19;;;;;;;;;;;;;;;17.94;54.22;99994.66;4967192;27;98325;-64
2023/11/13 11:04:47;;;;;;;;;;;;;;;17.87;54.20;99987.00;4980726;27;98267;-68
2023/11/13 11:07:13;;;;;;;;;;;;;;;17.83;54.31;99986.06;4987337;27;99928;-69
2023/11/13 11:09:40;;;;;;;;;;;;;;;17.78;54.37;99980.00;4984872;27;98598;-64
2023/11/13 11:12:07;;;;;;;;;;;;;;;17.67;54.69;99980.31;4965258;27;98753;-64
2023/11/13 11:14:56;;;;;;;;;;;;;;;17.59;54.64;99985.78;4979797;27;98015;-64
2023/11/13 11:17:26;;;;;;;;;;;;;;;17.48;54.87;99976.38;4971111;27;98105;-64
2023/11/13 11:19:53;;;;;;;;;;;;;;;17.37;54.88;99982.19;4975527;27;97873;-64
2023/11/13 11:22:28;;;;;;;;;;;;;;;17.38;54.61;99991.94;4968945;27;99258;-63
2023/11/13 11:25:05;;;;;;;;;;;;;;;17.40;54.65;99981.50;4972280;27;99136;-69
2023/11/13 11:27:42;;;;;;;;;;;;;;;17.43;54.68;99974.63;5001991;27;99215;-64
2023/11/13 11:30:17;;;;;;;;;;;;;;;17.50;54.57;99980.38;4985369;27;98050;-64
2023/11/13 11:33:09;;;;;;;;;;;;;;;17.58;54.35;99976.03;4996890;27;98335;-69
2023/11/13 11:35:45;;;;;;;;;;;;;;;17.64;54.36;99972.81;5000275;27;98168;-64
2023/11/13 11:38:22;;;;;;;;;;;;;;;17.71;54.55;99961.38;4974801;27;98052;-64
2023/11/13 11:40:48;;;;;;;;;;;;;;;17.70;54.32;99957.06;4985426;27;99999;-64
2023/11/13 11:43:21;;;;;;;;;;;;;;;17.65;54.45;99949.88;4968896;27;97893;-64
2023/11/13 11:45:49;;;;;;;;;;;;;;;17.56;54.51;99934.66;4968948;27;98500;-64
2023/11/13 11:48:18;;;;;;;;;;;;;;;17.39;54.77;99922.72;4963350;27;98156;-64
2023/11/13 11:50:45;;;;;;;;;;;;;;;17.22;55.01;99922.78;4965236;27;98177;-64
2023/11/13 11:53:19;;;;;;;;;;;;;;;17.07;54.99;99915.13;4975954;27;98054;-69
2023/11/13 11:55:45;;;;;;;;;;;;;;;16.91;55.26;99917.56;4989109;27;98012;-64
2023/11/13 11:58:15;;;;;;;;;;;;;;;16.79;55.41;99899.16;4993526;27;98998;-64
2023/11/13 12:00:41;;;;;;;;;;;;;;;16.77;55.11;99895.94;4968199;27;99074;-64
2023/11/13 12:03:08;;;;;;;;;;;;;;;16.75;55.14;99890.03;4965762;27;99350;-64
2023/11/13 12:05:34;;;;;;;;;;;;;;;16.74;55.16;99885.72;4996987;27;97949;-64
2023/11/13 12:08:00;;;;;;;;;;;;;;;16.68;55.14;99881.53;4986105;27;98181;-69
2023/11/13 12:10:26;;;;;;;;;;;;;;;16.56;55.23;99887.63;4968021;27;98234;-69
2023/11/13 12:12:52;;;;;;;;;;;;;;;16.53;55.54;99884.75;4957800;27;115940;-69
2023/11/13 12:15:18;;;;;;;;;;;;;;;16.52;55.20;99880.44;4988348;27;115882;-64
2023/11/13 12:17:44;;;;;;;;;;;;;;;16.52;55.21;99885.88;4987104;27;98141;-69
2023/11/13 12:20:11;;;;;;;;;;;;;;;16.48;55.24;99884.91;4966987;27;100054;-64
2023/11/13 12:22:39;;;;;;;;;;;;;;;16.40;55.36;99873.69;4974368;27;98001;-64
2023/11/13 12:25:06;;;;;;;;;;;;;;;16.34;55.21;99866.81;4972792;27;98112;-64
2023/11/13 12:27:34;;;;;;;;;;;;;;;16.29;55.45;99872.41;4969608;27;97986;-64
2023/11/13 12:30:01;;;;;;;;;;;;;;;16.26;55.41;99867.59;4985857;27;98526;-69
2023/11/13 12:32:30;;;;;;;;;;;;;;;16.23;55.36;99860.13;4982056;27;97960;-64
2023/11/13 12:34:59;;;;;;;;;;;;;;;16.15;55.50;99858.16;4985855;27;101370;-69
2023/11/13 12:37:27;;;;;;;;;;;;;;;16.00;55.42;99851.31;4983302;27;98288;-69